PWSweather.com
Personal Weather Stations
Station Observations
WD4JKH
Forsyth, GA 31029

Forsyth, GA 31029

Lat: 33.033225, Lon: -83.927995

Elevation: 709

Station Type: Davis Vantage VUE

High Low Average
Temperature 87.0°F30.6°C 72.9°F22.7°C 77.5°F25.3°C
Dew Point 76.1°F24.5°C 71.9°F22.2°C 73.7°F23.2°C
Winds 3.6 mph 5.8 kmh Calm Calm 1.0 mph SSW1.6 kmh SSW
Wind Gusts 10.0 mph16.1 kmh -- 5.0 mph8.0 kmh
Humidity 98% 67% 88%
Pressure 29.98 in1015.2 mb 29.87 in1011.5 mb -
Precipitation 0.42 in10.7 mm - -
Hour Temp Dew Point Humidity Winds Wind Gusts Pressure Precip Precip Rate Daily Precip Total
12:00 AM 73.5°F23.1°C 72.3°F22.4°C 96% 1.6 mph SE2.6 kmh SE 8.0 mph12.9 kmh 29.98 in1015.2 mb 0.00 in0.0 mm 0.00 in0.0 mm 0.00 in0.0 mm
12:05 AM 73.5°F23.1°C 72.3°F22.4°C 96% 2.0 mph SE3.2 kmh SE 8.0 mph12.9 kmh 29.97 in1014.9 mb 0.00 in0.0 mm 0.00 in0.0 mm 0.00 in0.0 mm
12:10 AM 73.5°F23.1°C 72.3°F22.4°C 96% Calm Calm 6.0 mph9.7 kmh 29.97 in1014.9 mb 0.00 in0.0 mm 0.00 in0.0 mm 0.00 in0.0 mm
12:15 AM 73.4°F23.0°C 72.2°F22.3°C 96% 1.1 mph SE1.8 kmh SE 6.0 mph9.7 kmh 29.97 in1014.9 mb 0.00 in0.0 mm 0.00 in0.0 mm 0.00 in0.0 mm
12:20 AM 73.4°F23.0°C 72.2°F22.3°C 96% 1.5 mph SE2.4 kmh SE 5.0 mph8.0 kmh 29.97 in1014.9 mb 0.00 in0.0 mm 0.00 in0.0 mm 0.00 in0.0 mm
12:25 AM 73.3°F22.9°C 72.1°F22.3°C 96% 1.5 mph SE2.4 kmh SE 5.0 mph8.0 kmh 29.97 in1014.9 mb 0.00 in0.0 mm 0.00 in0.0 mm 0.00 in0.0 mm
12:30 AM 73.3°F22.9°C 72.1°F22.3°C 96% 1.1 mph SE1.8 kmh SE 4.0 mph6.4 kmh 29.97 in1014.9 mb 0.00 in0.0 mm 0.00 in0.0 mm 0.00 in0.0 mm
12:36 AM 73.3°F22.9°C 72.1°F22.3°C 96% 1.0 mph SE1.6 kmh SE 4.0 mph6.4 kmh 29.97 in1014.9 mb 0.00 in0.0 mm 0.00 in0.0 mm 0.00 in0.0 mm
12:41 AM 73.2°F22.9°C 72.0°F22.2°C 96% 1.4 mph SE2.3 kmh SE 4.0 mph6.4 kmh 29.97 in1014.9 mb 0.00 in0.0 mm 0.00 in0.0 mm 0.00 in0.0 mm
12:46 AM 73.2°F22.9°C 72.0°F22.2°C 96% 2.1 mph ESE3.4 kmh ESE 5.0 mph8.0 kmh 29.97 in1014.9 mb 0.00 in0.0 mm 0.00 in0.0 mm 0.00 in0.0 mm
12:51 AM 73.1°F22.8°C 71.9°F22.2°C 96% 1.7 mph SE2.7 kmh SE 5.0 mph8.0 kmh 29.96 in1014.6 mb 0.00 in0.0 mm 0.00 in0.0 mm 0.00 in0.0 mm
12:56 AM 73.1°F22.8°C 72.2°F22.3°C 97% 1.8 mph SE2.9 kmh SE 5.0 mph8.0 kmh 29.96 in1014.6 mb 0.00 in0.0 mm 0.00 in0.0 mm 0.00 in0.0 mm
01:01 AM 73.1°F22.8°C 72.2°F22.3°C 97% 2.3 mph ESE3.7 kmh ESE 5.0 mph8.0 kmh 29.96 in1014.6 mb 0.00 in0.0 mm 0.00 in0.0 mm 0.00 in0.0 mm
01:06 AM 73.0°F22.8°C 72.1°F22.3°C 97% 1.8 mph ESE2.9 kmh ESE 5.0 mph8.0 kmh 29.96 in1014.6 mb 0.00 in0.0 mm 0.00 in0.0 mm 0.00 in0.0 mm
01:12 AM 73.0°F22.8°C 72.1°F22.3°C 97% 1.5 mph SE2.4 kmh SE 5.0 mph8.0 kmh 29.96 in1014.6 mb 0.00 in0.0 mm 0.00 in0.0 mm 0.00 in0.0 mm
01:17 AM 72.9°F22.7°C 72.0°F22.2°C 97% 1.6 mph SE2.6 kmh SE 5.0 mph8.0 kmh 29.96 in1014.6 mb 0.00 in0.0 mm 0.00 in0.0 mm 0.00 in0.0 mm
01:22 AM 72.9°F22.7°C 72.0°F22.2°C 97% Calm Calm 5.0 mph8.0 kmh 29.96 in1014.6 mb 0.00 in0.0 mm 0.00 in0.0 mm 0.00 in0.0 mm
01:27 AM 72.9°F22.7°C 72.0°F22.2°C 97% 1.0 mph SE1.6 kmh SE 3.0 mph4.8 kmh 29.96 in1014.6 mb 0.00 in0.0 mm 0.00 in0.0 mm 0.00 in0.0 mm
01:32 AM 73.0°F22.8°C 72.1°F22.3°C 97% 1.2 mph SE1.9 kmh SE 3.0 mph4.8 kmh 29.95 in1014.2 mb 0.00 in0.0 mm 0.00 in0.0 mm 0.00 in0.0 mm
01:37 AM 72.9°F22.7°C 72.0°F22.2°C 97% 2.1 mph SE3.4 kmh SE 4.0 mph6.4 kmh 29.95 in1014.2 mb 0.00 in0.0 mm 0.00 in0.0 mm 0.00 in0.0 mm
01:43 AM 73.0°F22.8°C 72.1°F22.3°C 97% 2.5 mph SE4.0 kmh SE 5.0 mph8.0 kmh 29.95 in1014.2 mb 0.00 in0.0 mm 0.00 in0.0 mm 0.00 in0.0 mm
01:48 AM 73.0°F22.8°C 72.1°F22.3°C 97% 2.2 mph S3.5 kmh S 5.0 mph8.0 kmh 29.95 in1014.2 mb 0.00 in0.0 mm 0.00 in0.0 mm 0.00 in0.0 mm
01:53 AM 73.1°F22.8°C 72.2°F22.3°C 97% 1.0 mph SE1.6 kmh SE 5.0 mph8.0 kmh 29.94 in1013.9 mb 0.00 in0.0 mm 0.00 in0.0 mm 0.00 in0.0 mm
01:58 AM 73.1°F22.8°C 72.2°F22.3°C 97% 1.8 mph SSW2.9 kmh SSW 5.0 mph8.0 kmh 29.94 in1013.9 mb 0.00 in0.0 mm 0.00 in0.0 mm 0.00 in0.0 mm
02:03 AM 73.1°F22.8°C 72.2°F22.3°C 97% 1.5 mph SSE2.4 kmh SSE 5.0 mph8.0 kmh 29.94 in1013.9 mb 0.00 in0.0 mm 0.00 in0.0 mm 0.00 in0.0 mm
02:08 AM 73.1°F22.8°C 72.2°F22.3°C 97% 1.0 mph SSE1.6 kmh SSE 4.0 mph6.4 kmh 29.94 in1013.9 mb 0.00 in0.0 mm 0.00 in0.0 mm 0.00 in0.0 mm
02:13 AM 73.2°F22.9°C 72.3°F22.4°C 97% Calm Calm 4.0 mph6.4 kmh 29.94 in1013.9 mb 0.00 in0.0 mm 0.00 in0.0 mm 0.00 in0.0 mm
02:19 AM 73.2°F22.9°C 72.3°F22.4°C 97% 1.0 mph S1.6 kmh S 4.0 mph6.4 kmh 29.94 in1013.9 mb 0.00 in0.0 mm 0.00 in0.0 mm 0.00 in0.0 mm
02:24 AM 73.2°F22.9°C 72.3°F22.4°C 97% 1.3 mph SSE2.1 kmh SSE 4.0 mph6.4 kmh 29.94 in1013.9 mb 0.00 in0.0 mm 0.00 in0.0 mm 0.00 in0.0 mm
02:29 AM 73.2°F22.9°C 72.3°F22.4°C 97% 1.7 mph SE2.7 kmh SE 3.0 mph4.8 kmh 29.94 in1013.9 mb 0.00 in0.0 mm 0.00 in0.0 mm 0.00 in0.0 mm
02:34 AM 73.2°F22.9°C 72.3°F22.4°C 97% 1.0 mph SW1.6 kmh SW 3.0 mph4.8 kmh 29.94 in1013.9 mb 0.00 in0.0 mm 0.00 in0.0 mm 0.00 in0.0 mm
02:39 AM 73.2°F22.9°C 72.3°F22.4°C 97% 1.7 mph S2.7 kmh S 4.0 mph6.4 kmh 29.93 in1013.5 mb 0.00 in0.0 mm 0.00 in0.0 mm 0.00 in0.0 mm
02:43 AM 73.2°F22.9°C 72.3°F22.4°C 97% Calm Calm 4.0 mph6.4 kmh 29.93 in1013.5 mb 0.00 in0.0 mm 0.00 in0.0 mm 0.00 in0.0 mm
02:48 AM 73.2°F22.9°C 72.3°F22.4°C 97% 1.4 mph S2.3 kmh S 4.0 mph6.4 kmh 29.93 in1013.5 mb 0.00 in0.0 mm 0.00 in0.0 mm 0.00 in0.0 mm
02:53 AM 73.2°F22.9°C 72.3°F22.4°C 97% 1.0 mph SW1.6 kmh SW 4.0 mph6.4 kmh 29.93 in1013.5 mb 0.00 in0.0 mm 0.00 in0.0 mm 0.00 in0.0 mm
02:59 AM 73.2°F22.9°C 72.3°F22.4°C 97% 1.2 mph SSW1.9 kmh SSW 3.0 mph4.8 kmh 29.93 in1013.5 mb 0.00 in0.0 mm 0.00 in0.0 mm 0.00 in0.0 mm
03:04 AM 73.2°F22.9°C 72.3°F22.4°C 97% 1.5 mph SW2.4 kmh SW 3.0 mph4.8 kmh 29.92 in1013.2 mb 0.00 in0.0 mm 0.00 in0.0 mm 0.00 in0.0 mm
03:09 AM 73.2°F22.9°C 72.3°F22.4°C 97% 1.7 mph SE2.7 kmh SE 3.0 mph4.8 kmh 29.92 in1013.2 mb 0.00 in0.0 mm 0.00 in0.0 mm 0.00 in0.0 mm
03:14 AM 73.2°F22.9°C 72.3°F22.4°C 97% Calm Calm 3.0 mph4.8 kmh 29.92 in1013.2 mb 0.00 in0.0 mm 0.00 in0.0 mm 0.00 in0.0 mm
03:19 AM 73.1°F22.8°C 72.2°F22.3°C 97% 1.0 mph SSW1.6 kmh SSW 3.0 mph4.8 kmh 29.92 in1013.2 mb 0.00 in0.0 mm 0.00 in0.0 mm 0.00 in0.0 mm
03:24 AM 73.1°F22.8°C 72.2°F22.3°C 97% 1.1 mph SE1.8 kmh SE 2.0 mph3.2 kmh 29.92 in1013.2 mb 0.00 in0.0 mm 0.00 in0.0 mm 0.00 in0.0 mm
03:30 AM 73.1°F22.8°C 72.2°F22.3°C 97% 1.0 mph SE1.6 kmh SE 2.0 mph3.2 kmh 29.92 in1013.2 mb 0.00 in0.0 mm 0.00 in0.0 mm 0.00 in0.0 mm
03:35 AM 73.1°F22.8°C 72.2°F22.3°C 97% Calm Calm 2.0 mph3.2 kmh 29.92 in1013.2 mb 0.00 in0.0 mm 0.00 in0.0 mm 0.00 in0.0 mm
03:40 AM 73.1°F22.8°C 72.2°F22.3°C 97% 1.1 mph SE1.8 kmh SE 2.0 mph3.2 kmh 29.92 in1013.2 mb 0.00 in0.0 mm 0.00 in0.0 mm 0.00 in0.0 mm
03:45 AM 73.2°F22.9°C 72.3°F22.4°C 97% Calm Calm 2.0 mph3.2 kmh 29.92 in1013.2 mb 0.00 in0.0 mm 0.00 in0.0 mm 0.00 in0.0 mm
03:50 AM 73.2°F22.9°C 72.3°F22.4°C 97% 1.0 mph SSE1.6 kmh SSE 2.0 mph3.2 kmh 29.92 in1013.2 mb 0.00 in0.0 mm 0.00 in0.0 mm 0.00 in0.0 mm
03:55 AM 73.2°F22.9°C 72.3°F22.4°C 97% 1.0 mph S1.6 kmh S 2.0 mph3.2 kmh 29.92 in1013.2 mb 0.00 in0.0 mm 0.00 in0.0 mm 0.00 in0.0 mm
04:00 AM 73.2°F22.9°C 72.3°F22.4°C 97% 1.0 mph SSW1.6 kmh SSW 2.0 mph3.2 kmh 29.92 in1013.2 mb 0.00 in0.0 mm 0.00 in0.0 mm 0.00 in0.0 mm
04:06 AM 73.2°F22.9°C 72.3°F22.4°C 97% 1.0 mph SW1.6 kmh SW 2.0 mph3.2 kmh 29.93 in1013.5 mb 0.00 in0.0 mm 0.00 in0.0 mm 0.00 in0.0 mm
04:11 AM 73.3°F22.9°C 72.4°F22.4°C 97% Calm Calm 2.0 mph3.2 kmh 29.93 in1013.5 mb 0.00 in0.0 mm 0.00 in0.0 mm 0.00 in0.0 mm
04:16 AM 73.3°F22.9°C 72.4°F22.4°C 97% Calm Calm 2.0 mph3.2 kmh 29.93 in1013.5 mb 0.00 in0.0 mm 0.00 in0.0 mm 0.00 in0.0 mm
04:21 AM 73.3°F22.9°C 72.4°F22.4°C 97% 1.3 mph SW2.1 kmh SW 2.0 mph3.2 kmh 29.93 in1013.5 mb 0.00 in0.0 mm 0.00 in0.0 mm 0.00 in0.0 mm
04:26 AM 73.3°F22.9°C 72.4°F22.4°C 97% Calm Calm 2.0 mph3.2 kmh 29.93 in1013.5 mb 0.00 in0.0 mm 0.00 in0.0 mm 0.00 in0.0 mm
04:31 AM 73.4°F23.0°C 72.5°F22.5°C 97% Calm Calm 2.0 mph3.2 kmh 29.94 in1013.9 mb 0.00 in0.0 mm 0.00 in0.0 mm 0.00 in0.0 mm
04:37 AM 73.3°F22.9°C 72.4°F22.4°C 97% 1.0 mph SW1.6 kmh SW 2.0 mph3.2 kmh 29.94 in1013.9 mb 0.00 in0.0 mm 0.00 in0.0 mm 0.00 in0.0 mm
04:42 AM 73.3°F22.9°C 72.4°F22.4°C 97% Calm Calm 1.0 mph1.6 kmh 29.95 in1014.2 mb 0.00 in0.0 mm 0.00 in0.0 mm 0.00 in0.0 mm
04:47 AM 73.4°F23.0°C 72.5°F22.5°C 97% 1.7 mph SW2.7 kmh SW 3.0 mph4.8 kmh 29.95 in1014.2 mb 0.00 in0.0 mm 0.00 in0.0 mm 0.00 in0.0 mm
04:52 AM 73.4°F23.0°C 72.5°F22.5°C 97% 1.0 mph S1.6 kmh S 3.0 mph4.8 kmh 29.95 in1014.2 mb 0.00 in0.0 mm 0.00 in0.0 mm 0.00 in0.0 mm
04:57 AM 73.4°F23.0°C 72.5°F22.5°C 97% 1.0 mph SSW1.6 kmh SSW 3.0 mph4.8 kmh 29.95 in1014.2 mb 0.00 in0.0 mm 0.00 in0.0 mm 0.00 in0.0 mm
05:02 AM 73.4°F23.0°C 72.5°F22.5°C 97% Calm Calm 3.0 mph4.8 kmh 29.95 in1014.2 mb 0.00 in0.0 mm 0.00 in0.0 mm 0.00 in0.0 mm
05:07 AM 73.4°F23.0°C 72.5°F22.5°C 97% 1.0 mph SW1.6 kmh SW 1.0 mph1.6 kmh 29.95 in1014.2 mb 0.00 in0.0 mm 0.00 in0.0 mm 0.00 in0.0 mm
05:13 AM 73.4°F23.0°C 72.5°F22.5°C 97% Calm Calm 1.0 mph1.6 kmh 29.96 in1014.6 mb 0.00 in0.0 mm 0.00 in0.0 mm 0.00 in0.0 mm
05:18 AM 73.4°F23.0°C 72.8°F22.7°C 98% 1.0 mph SW1.6 kmh SW 1.0 mph1.6 kmh 29.96 in1014.6 mb 0.00 in0.0 mm 0.00 in0.0 mm 0.00 in0.0 mm
05:23 AM 73.4°F23.0°C 72.8°F22.7°C 98% Calm Calm 1.0 mph1.6 kmh 29.96 in1014.6 mb 0.00 in0.0 mm 0.00 in0.0 mm 0.00 in0.0 mm
05:28 AM 73.4°F23.0°C 72.8°F22.7°C 98% 1.0 mph SW1.6 kmh SW 1.0 mph1.6 kmh 29.96 in1014.6 mb 0.00 in0.0 mm 0.00 in0.0 mm 0.00 in0.0 mm
05:33 AM 73.4°F23.0°C 72.8°F22.7°C 98% 1.0 mph SW1.6 kmh SW 1.0 mph1.6 kmh 29.96 in1014.6 mb 0.00 in0.0 mm 0.00 in0.0 mm 0.00 in0.0 mm
05:38 AM 73.4°F23.0°C 72.8°F22.7°C 98% 1.0 mph SW1.6 kmh SW 3.0 mph4.8 kmh 29.96 in1014.6 mb 0.00 in0.0 mm 0.00 in0.0 mm 0.00 in0.0 mm
05:44 AM 73.4°F23.0°C 72.8°F22.7°C 98% 1.0 mph WSW1.6 kmh WSW 3.0 mph4.8 kmh 29.96 in1014.6 mb 0.00 in0.0 mm 0.00 in0.0 mm 0.00 in0.0 mm
05:49 AM 73.4°F23.0°C 72.8°F22.7°C 98% 1.2 mph WSW1.9 kmh WSW 3.0 mph4.8 kmh 29.96 in1014.6 mb 0.00 in0.0 mm 0.00 in0.0 mm 0.00 in0.0 mm
05:54 AM 73.4°F23.0°C 72.8°F22.7°C 98% Calm Calm 4.0 mph6.4 kmh 29.97 in1014.9 mb 0.00 in0.0 mm 0.00 in0.0 mm 0.00 in0.0 mm
05:59 AM 73.4°F23.0°C 72.8°F22.7°C 98% 2.1 mph SSW3.4 kmh SSW 4.0 mph6.4 kmh 29.97 in1014.9 mb 0.00 in0.0 mm 0.00 in0.0 mm 0.00 in0.0 mm
06:04 AM 73.4°F23.0°C 72.8°F22.7°C 98% 2.2 mph SW3.5 kmh SW 4.0 mph6.4 kmh 29.97 in1014.9 mb 0.00 in0.0 mm 0.00 in0.0 mm 0.00 in0.0 mm
06:09 AM 73.3°F22.9°C 72.7°F22.6°C 98% 1.6 mph SW2.6 kmh SW 4.0 mph6.4 kmh 29.97 in1014.9 mb 0.00 in0.0 mm 0.00 in0.0 mm 0.00 in0.0 mm
06:14 AM 73.3°F22.9°C 72.7°F22.6°C 98% 1.9 mph SW3.1 kmh SW 4.0 mph6.4 kmh 29.97 in1014.9 mb 0.00 in0.0 mm 0.00 in0.0 mm 0.00 in0.0 mm
06:20 AM 73.2°F22.9°C 72.6°F22.6°C 98% 1.6 mph SW2.6 kmh SW 4.0 mph6.4 kmh 29.97 in1014.9 mb 0.00 in0.0 mm 0.00 in0.0 mm 0.00 in0.0 mm
06:25 AM 73.2°F22.9°C 72.6°F22.6°C 98% 1.6 mph SW2.6 kmh SW 4.0 mph6.4 kmh 29.97 in1014.9 mb 0.00 in0.0 mm 0.00 in0.0 mm 0.00 in0.0 mm
06:30 AM 73.2°F22.9°C 72.6°F22.6°C 98% 1.9 mph SW3.1 kmh SW 5.0 mph8.0 kmh 29.97 in1014.9 mb 0.00 in0.0 mm 0.00 in0.0 mm 0.00 in0.0 mm
06:35 AM 73.2°F22.9°C 72.6°F22.6°C 98% Calm Calm 5.0 mph8.0 kmh 29.97 in1014.9 mb 0.00 in0.0 mm 0.00 in0.0 mm 0.00 in0.0 mm
06:40 AM 73.2°F22.9°C 72.6°F22.6°C 98% 1.6 mph SW2.6 kmh SW 5.0 mph8.0 kmh 29.97 in1014.9 mb 0.00 in0.0 mm 0.00 in0.0 mm 0.00 in0.0 mm
06:45 AM 73.2°F22.9°C 72.6°F22.6°C 98% 1.2 mph SSW1.9 kmh SSW 5.0 mph8.0 kmh 29.97 in1014.9 mb 0.00 in0.0 mm 0.00 in0.0 mm 0.00 in0.0 mm
06:51 AM 73.2°F22.9°C 72.6°F22.6°C 98% 1.4 mph SW2.3 kmh SW 4.0 mph6.4 kmh 29.97 in1014.9 mb 0.00 in0.0 mm 0.00 in0.0 mm 0.00 in0.0 mm
06:56 AM 73.3°F22.9°C 72.7°F22.6°C 98% 2.4 mph SW3.9 kmh SW 5.0 mph8.0 kmh 29.97 in1014.9 mb 0.00 in0.0 mm 0.00 in0.0 mm 0.00 in0.0 mm
07:01 AM 73.3°F22.9°C 72.7°F22.6°C 98% 1.2 mph SW1.9 kmh SW 5.0 mph8.0 kmh 29.97 in1014.9 mb 0.00 in0.0 mm 0.00 in0.0 mm 0.00 in0.0 mm
07:06 AM 73.3°F22.9°C 72.4°F22.4°C 97% 2.3 mph SW3.7 kmh SW 5.0 mph8.0 kmh 29.97 in1014.9 mb 0.00 in0.0 mm 0.00 in0.0 mm 0.00 in0.0 mm
07:11 AM 73.4°F23.0°C 72.5°F22.5°C 97% 1.1 mph SW1.8 kmh SW 5.0 mph8.0 kmh 29.97 in1014.9 mb 0.00 in0.0 mm 0.00 in0.0 mm 0.00 in0.0 mm
07:16 AM 73.4°F23.0°C 72.5°F22.5°C 97% 2.3 mph SW3.7 kmh SW 5.0 mph8.0 kmh 29.97 in1014.9 mb 0.00 in0.0 mm 0.00 in0.0 mm 0.00 in0.0 mm
07:21 AM 73.4°F23.0°C 72.5°F22.5°C 97% 2.1 mph SW3.4 kmh SW 5.0 mph8.0 kmh 29.97 in1014.9 mb 0.00 in0.0 mm 0.00 in0.0 mm 0.00 in0.0 mm
07:27 AM 73.5°F23.1°C 72.6°F22.6°C 97% 2.0 mph WSW3.2 kmh WSW 4.0 mph6.4 kmh 29.98 in1015.2 mb 0.00 in0.0 mm 0.00 in0.0 mm 0.00 in0.0 mm
07:32 AM 73.7°F23.2°C 72.8°F22.7°C 97% 1.4 mph SSW2.3 kmh SSW 4.0 mph6.4 kmh 29.98 in1015.2 mb 0.00 in0.0 mm 0.00 in0.0 mm 0.00 in0.0 mm
07:38 AM 73.8°F23.2°C 72.9°F22.7°C 97% Calm Calm 4.0 mph6.4 kmh 29.98 in1015.2 mb 0.00 in0.0 mm 0.00 in0.0 mm 0.00 in0.0 mm
07:43 AM 73.9°F23.3°C 73.0°F22.8°C 97% 1.0 mph SW1.6 kmh SW 4.0 mph6.4 kmh 29.98 in1015.2 mb 0.00 in0.0 mm 0.00 in0.0 mm 0.00 in0.0 mm
07:48 AM 74.1°F23.4°C 73.2°F22.9°C 97% 1.0 mph S1.6 kmh S 4.0 mph6.4 kmh 29.98 in1015.2 mb 0.00 in0.0 mm 0.00 in0.0 mm 0.00 in0.0 mm
07:53 AM 74.3°F23.5°C 73.4°F23.0°C 97% 1.3 mph SW2.1 kmh SW 4.0 mph6.4 kmh 29.97 in1014.9 mb 0.00 in0.0 mm 0.00 in0.0 mm 0.00 in0.0 mm
07:58 AM 74.2°F23.4°C 73.0°F22.8°C 96% 1.7 mph SSW2.7 kmh SSW 4.0 mph6.4 kmh 29.97 in1014.9 mb 0.00 in0.0 mm 0.00 in0.0 mm 0.00 in0.0 mm
08:03 AM 74.4°F23.6°C 73.2°F22.9°C 96% 2.7 mph SW4.3 kmh SW 4.0 mph6.4 kmh 29.97 in1014.9 mb 0.00 in0.0 mm 0.00 in0.0 mm 0.00 in0.0 mm
08:08 AM 74.5°F23.6°C 72.9°F22.7°C 95% 1.7 mph SW2.7 kmh SW 4.0 mph6.4 kmh 29.98 in1015.2 mb 0.00 in0.0 mm 0.00 in0.0 mm 0.00 in0.0 mm
08:13 AM 74.5°F23.6°C 72.9°F22.7°C 95% 2.0 mph SW3.2 kmh SW 5.0 mph8.0 kmh 29.98 in1015.2 mb 0.00 in0.0 mm 0.00 in0.0 mm 0.00 in0.0 mm
08:18 AM 74.5°F23.6°C 72.9°F22.7°C 95% 2.6 mph SW4.2 kmh SW 5.0 mph8.0 kmh 29.98 in1015.2 mb 0.00 in0.0 mm 0.00 in0.0 mm 0.00 in0.0 mm
08:23 AM 74.6°F23.7°C 72.7°F22.6°C 94% 2.7 mph WSW4.3 kmh WSW 6.0 mph9.7 kmh 29.98 in1015.2 mb 0.00 in0.0 mm 0.00 in0.0 mm 0.00 in0.0 mm
08:28 AM 74.9°F23.8°C 73.1°F22.8°C 94% 1.0 mph SW1.6 kmh SW 6.0 mph9.7 kmh 29.97 in1014.9 mb 0.00 in0.0 mm 0.00 in0.0 mm 0.00 in0.0 mm
08:33 AM 75.4°F24.1°C 73.6°F23.1°C 94% 1.6 mph S2.6 kmh S 6.0 mph9.7 kmh 29.98 in1015.2 mb 0.00 in0.0 mm 0.00 in0.0 mm 0.00 in0.0 mm
08:38 AM 75.4°F24.1°C 72.9°F22.7°C 92% 1.3 mph WSW2.1 kmh WSW 6.0 mph9.7 kmh 29.98 in1015.2 mb 0.00 in0.0 mm 0.00 in0.0 mm 0.00 in0.0 mm
08:43 AM 75.4°F24.1°C 72.9°F22.7°C 92% 3.2 mph SW5.1 kmh SW 7.0 mph11.3 kmh 29.98 in1015.2 mb 0.00 in0.0 mm 0.00 in0.0 mm 0.00 in0.0 mm
08:48 AM 75.6°F24.2°C 73.1°F22.8°C 92% 1.4 mph SW2.3 kmh SW 7.0 mph11.3 kmh 29.98 in1015.2 mb 0.00 in0.0 mm 0.00 in0.0 mm 0.00 in0.0 mm
08:53 AM 76.0°F24.4°C 73.2°F22.9°C 91% Calm Calm 7.0 mph11.3 kmh 29.98 in1015.2 mb 0.00 in0.0 mm 0.00 in0.0 mm 0.00 in0.0 mm
08:58 AM 76.6°F24.8°C 73.4°F23.0°C 90% 1.0 mph SW1.6 kmh SW 7.0 mph11.3 kmh 29.98 in1015.2 mb 0.00 in0.0 mm 0.00 in0.0 mm 0.00 in0.0 mm
09:03 AM 76.9°F24.9°C 73.1°F22.8°C 88% 2.4 mph SSE3.9 kmh SSE 5.0 mph8.0 kmh 29.98 in1015.2 mb 0.00 in0.0 mm 0.00 in0.0 mm 0.00 in0.0 mm
09:08 AM 76.9°F24.9°C 73.1°F22.8°C 88% 1.5 mph SW2.4 kmh SW 8.0 mph12.9 kmh 29.98 in1015.2 mb 0.00 in0.0 mm 0.00 in0.0 mm 0.00 in0.0 mm
09:13 AM 77.1°F25.1°C 73.3°F22.9°C 88% 1.7 mph WSW2.7 kmh WSW 8.0 mph12.9 kmh 29.98 in1015.2 mb 0.00 in0.0 mm 0.00 in0.0 mm 0.00 in0.0 mm
09:18 AM 77.5°F25.3°C 73.3°F22.9°C 87% 2.2 mph SW3.5 kmh SW 8.0 mph12.9 kmh 29.98 in1015.2 mb 0.00 in0.0 mm 0.00 in0.0 mm 0.00 in0.0 mm
09:23 AM 77.4°F25.2°C 72.9°F22.7°C 86% 1.4 mph SSW2.3 kmh SSW 8.0 mph12.9 kmh 29.98 in1015.2 mb 0.00 in0.0 mm 0.00 in0.0 mm 0.00 in0.0 mm
09:29 AM 77.8°F25.4°C 73.3°F22.9°C 86% 1.8 mph SE2.9 kmh SE 4.0 mph6.4 kmh 29.97 in1014.9 mb 0.00 in0.0 mm 0.00 in0.0 mm 0.00 in0.0 mm
09:34 AM 78.4°F25.8°C 73.2°F22.9°C 84% 1.3 mph S2.1 kmh S 4.0 mph6.4 kmh 29.97 in1014.9 mb 0.00 in0.0 mm 0.00 in0.0 mm 0.00 in0.0 mm
09:39 AM 79.0°F26.1°C 73.5°F23.1°C 83% 1.2 mph S1.9 kmh S 4.0 mph6.4 kmh 29.97 in1014.9 mb 0.00 in0.0 mm 0.00 in0.0 mm 0.00 in0.0 mm
09:44 AM 79.2°F26.2°C 73.7°F23.2°C 83% 1.1 mph SW1.8 kmh SW 4.0 mph6.4 kmh 29.97 in1014.9 mb 0.00 in0.0 mm 0.00 in0.0 mm 0.00 in0.0 mm
09:49 AM 79.7°F26.5°C 73.8°F23.2°C 82% 1.3 mph SSW2.1 kmh SSW 4.0 mph6.4 kmh 29.97 in1014.9 mb 0.00 in0.0 mm 0.00 in0.0 mm 0.00 in0.0 mm
09:54 AM 80.4°F26.9°C 74.5°F23.6°C 82% 1.3 mph SSW2.1 kmh SSW 4.0 mph6.4 kmh 29.97 in1014.9 mb 0.00 in0.0 mm 0.00 in0.0 mm 0.00 in0.0 mm
09:59 AM 80.3°F26.8°C 73.9°F23.3°C 81% 1.0 mph W1.6 kmh W 5.0 mph8.0 kmh 29.97 in1014.9 mb 0.00 in0.0 mm 0.00 in0.0 mm 0.00 in0.0 mm
10:04 AM 80.8°F27.1°C 74.2°F23.4°C 80% 2.2 mph S3.5 kmh S 5.0 mph8.0 kmh 29.97 in1014.9 mb 0.00 in0.0 mm 0.00 in0.0 mm 0.00 in0.0 mm
10:09 AM 81.1°F27.3°C 74.8°F23.8°C 81% 2.3 mph SE3.7 kmh SE 5.0 mph8.0 kmh 29.97 in1014.9 mb 0.00 in0.0 mm 0.00 in0.0 mm 0.00 in0.0 mm
10:14 AM 81.4°F27.4°C 74.4°F23.6°C 79% 1.2 mph SSW1.9 kmh SSW 5.0 mph8.0 kmh 29.97 in1014.9 mb 0.00 in0.0 mm 0.00 in0.0 mm 0.00 in0.0 mm
10:19 AM 81.9°F27.7°C 74.5°F23.6°C 78% 2.8 mph SW4.5 kmh SW 7.0 mph11.3 kmh 29.97 in1014.9 mb 0.00 in0.0 mm 0.00 in0.0 mm 0.00 in0.0 mm
10:24 AM 81.8°F27.7°C 74.4°F23.6°C 78% 2.3 mph SE3.7 kmh SE 7.0 mph11.3 kmh 29.97 in1014.9 mb 0.00 in0.0 mm 0.00 in0.0 mm 0.00 in0.0 mm
10:29 AM 81.9°F27.7°C 74.5°F23.6°C 78% 1.4 mph WSW2.3 kmh WSW 7.0 mph11.3 kmh 29.97 in1014.9 mb 0.00 in0.0 mm 0.00 in0.0 mm 0.00 in0.0 mm
10:34 AM 81.8°F27.7°C 74.8°F23.8°C 79% 1.2 mph SSE1.9 kmh SSE 7.0 mph11.3 kmh 29.97 in1014.9 mb 0.00 in0.0 mm 0.00 in0.0 mm 0.00 in0.0 mm
10:39 AM 81.8°F27.7°C 74.6°F23.7°C 79% 1.2 mph S1.9 kmh S 6.0 mph9.7 kmh 29.97 in1014.9 mb 0.00 in0.0 mm 0.00 in0.0 mm 0.00 in0.0 mm
10:44 AM 81.4°F27.4°C 74.4°F23.6°C 79% 1.6 mph SW2.6 kmh SW 4.0 mph6.4 kmh 29.97 in1014.9 mb 0.00 in0.0 mm 0.00 in0.0 mm 0.00 in0.0 mm
10:49 AM 80.9°F27.2°C 74.3°F23.5°C 80% 1.5 mph SSW2.4 kmh SSW 4.0 mph6.4 kmh 29.97 in1014.9 mb 0.00 in0.0 mm 0.00 in0.0 mm 0.00 in0.0 mm
10:54 AM 80.6°F27.0°C 74.3°F23.5°C 81% 1.9 mph SW3.1 kmh SW 4.0 mph6.4 kmh 29.97 in1014.9 mb 0.00 in0.0 mm 0.00 in0.0 mm 0.00 in0.0 mm
10:59 AM 80.5°F26.9°C 73.9°F23.3°C 80% 1.4 mph SSW2.3 kmh SSW 4.0 mph6.4 kmh 29.97 in1014.9 mb 0.00 in0.0 mm 0.00 in0.0 mm 0.00 in0.0 mm
11:04 AM 80.8°F27.1°C 74.5°F23.6°C 81% 1.3 mph S2.1 kmh S 4.0 mph6.4 kmh 29.97 in1014.9 mb 0.00 in0.0 mm 0.00 in0.0 mm 0.00 in0.0 mm
11:09 AM 81.1°F27.3°C 74.8°F23.8°C 81% 2.7 mph W4.3 kmh W 5.0 mph8.0 kmh 29.97 in1014.9 mb 0.00 in0.0 mm 0.00 in0.0 mm 0.00 in0.0 mm
11:14 AM 81.4°F27.4°C 74.0°F23.3°C 78% Calm Calm 5.0 mph8.0 kmh 29.97 in1014.9 mb 0.00 in0.0 mm 0.00 in0.0 mm 0.00 in0.0 mm
11:19 AM 81.3°F27.4°C 74.2°F23.4°C 79% 2.0 mph SW3.2 kmh SW 5.0 mph8.0 kmh 29.97 in1014.9 mb 0.00 in0.0 mm 0.00 in0.0 mm 0.00 in0.0 mm
11:24 AM 80.7°F27.1°C 74.1°F23.4°C 80% 1.0 mph SW1.6 kmh SW 5.0 mph8.0 kmh 29.97 in1014.9 mb 0.00 in0.0 mm 0.00 in0.0 mm 0.00 in0.0 mm
11:29 AM 80.5°F26.9°C 73.9°F23.3°C 80% 2.0 mph SW3.2 kmh SW 5.0 mph8.0 kmh 29.97 in1014.9 mb 0.00 in0.0 mm 0.00 in0.0 mm 0.00 in0.0 mm
11:34 AM 80.4°F26.9°C 74.1°F23.4°C 81% 1.6 mph SW2.6 kmh SW 5.0 mph8.0 kmh 29.97 in1014.9 mb 0.00 in0.0 mm 0.00 in0.0 mm 0.00 in0.0 mm
11:39 AM 80.8°F27.1°C 74.2°F23.4°C 80% 1.6 mph S2.6 kmh S 5.0 mph8.0 kmh 29.96 in1014.6 mb 0.00 in0.0 mm 0.00 in0.0 mm 0.00 in0.0 mm
11:44 AM 81.5°F27.5°C 74.5°F23.6°C 79% 1.8 mph S2.9 kmh S 6.0 mph9.7 kmh 29.96 in1014.6 mb 0.00 in0.0 mm 0.00 in0.0 mm 0.00 in0.0 mm
11:49 AM 81.7°F27.6°C 74.7°F23.7°C 79% 1.5 mph SW2.4 kmh SW 7.0 mph11.3 kmh 29.96 in1014.6 mb 0.00 in0.0 mm 0.00 in0.0 mm 0.00 in0.0 mm
11:54 AM 82.1°F27.8°C 74.6°F23.7°C 78% 1.8 mph SW2.9 kmh SW 7.0 mph11.3 kmh 29.96 in1014.6 mb 0.00 in0.0 mm 0.00 in0.0 mm 0.00 in0.0 mm
11:59 AM 82.0°F27.8°C 74.2°F23.4°C 77% 2.3 mph SSW3.7 kmh SSW 7.0 mph11.3 kmh 29.95 in1014.2 mb 0.00 in0.0 mm 0.00 in0.0 mm 0.00 in0.0 mm
12:04 PM 82.4°F28.0°C 75.0°F23.9°C 78% 1.9 mph SW3.1 kmh SW 7.0 mph11.3 kmh 29.95 in1014.2 mb 0.00 in0.0 mm 0.00 in0.0 mm 0.00 in0.0 mm
12:09 PM 82.5°F28.1°C 74.3°F23.5°C 76% 3.6 mph SW5.8 kmh SW 8.0 mph12.9 kmh 29.95 in1014.2 mb 0.00 in0.0 mm 0.00 in0.0 mm 0.00 in0.0 mm
12:14 PM 82.4°F28.0°C 73.9°F23.3°C 75% 1.0 mph SSW1.6 kmh SSW 8.0 mph12.9 kmh 29.95 in1014.2 mb 0.00 in0.0 mm 0.00 in0.0 mm 0.00 in0.0 mm
12:19 PM 83.0°F28.3°C 74.4°F23.6°C 75% 2.1 mph WSW3.4 kmh WSW 8.0 mph12.9 kmh 29.94 in1013.9 mb 0.00 in0.0 mm 0.00 in0.0 mm 0.00 in0.0 mm
12:24 PM 83.3°F28.5°C 74.7°F23.7°C 75% 2.5 mph SSW4.0 kmh SSW 8.0 mph12.9 kmh 29.94 in1013.9 mb 0.00 in0.0 mm 0.00 in0.0 mm 0.00 in0.0 mm
12:29 PM 84.1°F28.9°C 75.1°F23.9°C 74% 1.4 mph ESE2.3 kmh ESE 6.0 mph9.7 kmh 29.94 in1013.9 mb 0.00 in0.0 mm 0.00 in0.0 mm 0.00 in0.0 mm
12:34 PM 84.2°F29.0°C 74.4°F23.6°C 72% 1.8 mph SSW2.9 kmh SSW 6.0 mph9.7 kmh 29.94 in1013.9 mb 0.00 in0.0 mm 0.00 in0.0 mm 0.00 in0.0 mm
12:39 PM 83.5°F28.6°C 74.1°F23.4°C 73% 2.2 mph SW3.5 kmh SW 5.0 mph8.0 kmh 29.94 in1013.9 mb 0.00 in0.0 mm 0.00 in0.0 mm 0.00 in0.0 mm
12:44 PM 82.7°F28.2°C 74.2°F23.4°C 75% 2.4 mph SW3.9 kmh SW 8.0 mph12.9 kmh 29.94 in1013.9 mb 0.00 in0.0 mm 0.00 in0.0 mm 0.00 in0.0 mm
12:49 PM 82.6°F28.1°C 74.1°F23.4°C 75% 1.9 mph SW3.1 kmh SW 8.0 mph12.9 kmh 29.93 in1013.5 mb 0.00 in0.0 mm 0.00 in0.0 mm 0.00 in0.0 mm
12:54 PM 83.0°F28.3°C 74.4°F23.6°C 75% 1.4 mph SSW2.3 kmh SSW 8.0 mph12.9 kmh 29.93 in1013.5 mb 0.00 in0.0 mm 0.00 in0.0 mm 0.00 in0.0 mm
12:59 PM 82.8°F28.2°C 74.6°F23.7°C 76% 1.5 mph SE2.4 kmh SE 8.0 mph12.9 kmh 29.93 in1013.5 mb 0.00 in0.0 mm 0.00 in0.0 mm 0.00 in0.0 mm
01:04 PM 82.0°F27.8°C 74.6°F23.7°C 78% 3.3 mph S5.3 kmh S 9.0 mph14.5 kmh 29.93 in1013.5 mb 0.00 in0.0 mm 0.00 in0.0 mm 0.00 in0.0 mm
01:09 PM 80.9°F27.2°C 74.1°F23.4°C 80% 2.6 mph SSW4.2 kmh SSW 9.0 mph14.5 kmh 29.93 in1013.5 mb 0.00 in0.0 mm 0.00 in0.0 mm 0.00 in0.0 mm
01:14 PM 80.3°F26.8°C 75.1°F23.9°C 84% 2.5 mph SW4.0 kmh SW 9.0 mph14.5 kmh 29.93 in1013.5 mb 0.00 in0.0 mm 0.00 in0.0 mm 0.00 in0.0 mm
01:19 PM 79.7°F26.5°C 74.5°F23.6°C 84% 2.8 mph SW4.5 kmh SW 10.0 mph16.1 kmh 29.93 in1013.5 mb 0.02 in0.5 mm 0.24 in6.1 mm 0.02 in0.5 mm
01:24 PM 79.0°F26.1°C 74.5°F23.6°C 86% 2.6 mph SW4.2 kmh SW 10.0 mph16.1 kmh 29.93 in1013.5 mb 0.02 in0.5 mm 0.00 in0.0 mm 0.02 in0.5 mm
01:29 PM 78.6°F25.9°C 74.4°F23.6°C 87% 1.8 mph SE2.9 kmh SE 10.0 mph16.1 kmh 29.93 in1013.5 mb 0.02 in0.5 mm 0.00 in0.0 mm 0.02 in0.5 mm
01:34 PM 78.4°F25.8°C 73.9°F23.3°C 86% 2.8 mph SSE4.5 kmh SSE 10.0 mph16.1 kmh 29.93 in1013.5 mb 0.03 in0.8 mm 0.12 in3.0 mm 0.03 in0.8 mm
01:38 PM 78.3°F25.7°C 73.8°F23.2°C 86% 3.2 mph SE5.1 kmh SE 9.0 mph14.5 kmh 29.92 in1013.2 mb 0.03 in0.8 mm 0.00 in0.0 mm 0.03 in0.8 mm
01:43 PM 78.1°F25.6°C 73.6°F23.1°C 86% 2.9 mph S4.7 kmh S 9.0 mph14.5 kmh 29.92 in1013.2 mb 0.03 in0.8 mm 0.00 in0.0 mm 0.03 in0.8 mm
01:48 PM 78.3°F25.7°C 74.1°F23.4°C 87% 1.3 mph SE2.1 kmh SE 9.0 mph14.5 kmh 29.92 in1013.2 mb 0.03 in0.8 mm 0.00 in0.0 mm 0.03 in0.8 mm
01:53 PM 79.1°F26.2°C 74.9°F23.8°C 87% 1.3 mph S2.1 kmh S 9.0 mph14.5 kmh 29.92 in1013.2 mb 0.03 in0.8 mm 0.00 in0.0 mm 0.03 in0.8 mm
01:58 PM 79.6°F26.4°C 74.7°F23.7°C 85% 2.4 mph S3.9 kmh S 7.0 mph11.3 kmh 29.92 in1013.2 mb 0.03 in0.8 mm 0.00 in0.0 mm 0.03 in0.8 mm
02:03 PM 79.7°F26.5°C 74.5°F23.6°C 84% 2.4 mph S3.9 kmh S 7.0 mph11.3 kmh 29.92 in1013.2 mb 0.03 in0.8 mm 0.00 in0.0 mm 0.03 in0.8 mm
02:08 PM 80.1°F26.7°C 74.5°F23.6°C 83% 2.4 mph SSW3.9 kmh SSW 7.0 mph11.3 kmh 29.92 in1013.2 mb 0.03 in0.8 mm 0.00 in0.0 mm 0.03 in0.8 mm
02:13 PM 80.3°F26.8°C 75.1°F23.9°C 84% 3.0 mph SW4.8 kmh SW 8.0 mph12.9 kmh 29.92 in1013.2 mb 0.03 in0.8 mm 0.00 in0.0 mm 0.03 in0.8 mm
02:18 PM 80.8°F27.1°C 74.8°F23.8°C 82% 3.3 mph SW5.3 kmh SW 8.0 mph12.9 kmh 29.91 in1012.9 mb 0.01 in0.3 mm 0.00 in0.0 mm 0.03 in0.8 mm
02:23 PM 81.2°F27.3°C 74.9°F23.8°C 81% 3.2 mph S5.1 kmh S 8.0 mph12.9 kmh 29.91 in1012.9 mb 0.01 in0.3 mm 0.00 in0.0 mm 0.03 in0.8 mm
02:28 PM 81.6°F27.6°C 75.7°F24.3°C 82% 2.2 mph S3.5 kmh S 8.0 mph12.9 kmh 29.90 in1012.5 mb 0.01 in0.3 mm 0.00 in0.0 mm 0.03 in0.8 mm
02:33 PM 82.1°F27.8°C 75.4°F24.1°C 80% 2.8 mph SSE4.5 kmh SSE 7.0 mph11.3 kmh 29.90 in1012.5 mb 0.00 in0.0 mm 0.00 in0.0 mm 0.03 in0.8 mm
02:38 PM 82.4°F28.0°C 75.7°F24.3°C 80% 2.9 mph SW4.7 kmh SW 6.0 mph9.7 kmh 29.90 in1012.5 mb 0.00 in0.0 mm 0.00 in0.0 mm 0.03 in0.8 mm
02:43 PM 82.9°F28.3°C 75.9°F24.4°C 79% 1.6 mph SE2.6 kmh SE 6.0 mph9.7 kmh 29.91 in1012.9 mb 0.00 in0.0 mm 0.00 in0.0 mm 0.03 in0.8 mm
02:48 PM 82.9°F28.3°C 75.9°F24.4°C 79% 1.4 mph WNW2.3 kmh WNW 6.0 mph9.7 kmh 29.90 in1012.5 mb 0.00 in0.0 mm 0.00 in0.0 mm 0.03 in0.8 mm
02:53 PM 82.6°F28.1°C 75.0°F23.9°C 78% 2.4 mph SW3.9 kmh SW 7.0 mph11.3 kmh 29.91 in1012.9 mb 0.00 in0.0 mm 0.00 in0.0 mm 0.03 in0.8 mm
02:58 PM 82.7°F28.2°C 74.5°F23.6°C 76% 3.4 mph SW5.5 kmh SW 8.0 mph12.9 kmh 29.91 in1012.9 mb 0.00 in0.0 mm 0.00 in0.0 mm 0.03 in0.8 mm
03:03 PM 82.7°F28.2°C 74.5°F23.6°C 76% 3.1 mph SW5.0 kmh SW 8.0 mph12.9 kmh 29.91 in1012.9 mb 0.00 in0.0 mm 0.00 in0.0 mm 0.03 in0.8 mm
03:08 PM 82.8°F28.2°C 75.0°F23.9°C 77% 2.9 mph SW4.7 kmh SW 8.0 mph12.9 kmh 29.90 in1012.5 mb 0.00 in0.0 mm 0.00 in0.0 mm 0.03 in0.8 mm
03:13 PM 83.3°F28.5°C 75.1°F23.9°C 76% 2.4 mph SW3.9 kmh SW 8.0 mph12.9 kmh 29.90 in1012.5 mb 0.00 in0.0 mm 0.00 in0.0 mm 0.03 in0.8 mm
03:18 PM 83.7°F28.7°C 75.5°F24.2°C 76% 2.4 mph WSW3.9 kmh WSW 6.0 mph9.7 kmh 29.90 in1012.5 mb 0.00 in0.0 mm 0.00 in0.0 mm 0.03 in0.8 mm
03:23 PM 84.7°F29.3°C 76.1°F24.5°C 75% 1.5 mph SW2.4 kmh SW 6.0 mph9.7 kmh 29.90 in1012.5 mb 0.00 in0.0 mm 0.00 in0.0 mm 0.03 in0.8 mm
03:28 PM 84.5°F29.2°C 75.7°F24.3°C 75% 2.1 mph SSW3.4 kmh SSW 6.0 mph9.7 kmh 29.90 in1012.5 mb 0.00 in0.0 mm 0.00 in0.0 mm 0.03 in0.8 mm
03:33 PM 84.5°F29.2°C 75.5°F24.2°C 74% 2.3 mph SW3.7 kmh SW 6.0 mph9.7 kmh 29.90 in1012.5 mb 0.00 in0.0 mm 0.00 in0.0 mm 0.03 in0.8 mm
03:38 PM 84.7°F29.3°C 76.1°F24.5°C 75% 2.2 mph SW3.5 kmh SW 9.0 mph14.5 kmh 29.89 in1012.2 mb 0.00 in0.0 mm 0.00 in0.0 mm 0.03 in0.8 mm
03:43 PM 84.8°F29.3°C 75.4°F24.1°C 73% 3.1 mph SSW5.0 kmh SSW 9.0 mph14.5 kmh 29.89 in1012.2 mb 0.00 in0.0 mm 0.00 in0.0 mm 0.03 in0.8 mm
03:48 PM 84.9°F29.4°C 75.9°F24.4°C 74% 2.3 mph SSW3.7 kmh SSW 9.0 mph14.5 kmh 29.89 in1012.2 mb 0.00 in0.0 mm 0.00 in0.0 mm 0.03 in0.8 mm
03:53 PM 85.2°F29.6°C 75.8°F24.3°C 73% 1.6 mph S2.6 kmh S 9.0 mph14.5 kmh 29.89 in1012.2 mb 0.00 in0.0 mm 0.00 in0.0 mm 0.03 in0.8 mm
03:58 PM 85.4°F29.7°C 76.0°F24.4°C 73% 1.1 mph SE1.8 kmh SE 5.0 mph8.0 kmh 29.89 in1012.2 mb 0.00 in0.0 mm 0.00 in0.0 mm 0.03 in0.8 mm
04:03 PM 85.5°F29.7°C 75.0°F23.9°C 71% 2.5 mph SW4.0 kmh SW 5.0 mph8.0 kmh 29.89 in1012.2 mb 0.00 in0.0 mm 0.00 in0.0 mm 0.03 in0.8 mm
04:08 PM 85.5°F29.7°C 75.7°F24.3°C 72% 1.8 mph WSW2.9 kmh WSW 7.0 mph11.3 kmh 29.89 in1012.2 mb 0.00 in0.0 mm 0.00 in0.0 mm 0.03 in0.8 mm
04:13 PM 85.4°F29.7°C 75.2°F24.0°C 71% 3.0 mph SW4.8 kmh SW 7.0 mph11.3 kmh 29.89 in1012.2 mb 0.00 in0.0 mm 0.00 in0.0 mm 0.03 in0.8 mm
04:18 PM 85.5°F29.7°C 75.7°F24.3°C 72% 2.0 mph SW3.2 kmh SW 7.0 mph11.3 kmh 29.89 in1012.2 mb 0.00 in0.0 mm 0.00 in0.0 mm 0.03 in0.8 mm
04:23 PM 85.8°F29.9°C 75.6°F24.2°C 71% 2.1 mph S3.4 kmh S 7.0 mph11.3 kmh 29.89 in1012.2 mb 0.00 in0.0 mm 0.00 in0.0 mm 0.03 in0.8 mm
04:28 PM 86.5°F30.3°C 75.5°F24.2°C 70% 1.1 mph SW1.8 kmh SW 7.0 mph11.3 kmh 29.89 in1012.2 mb 0.00 in0.0 mm 0.00 in0.0 mm 0.03 in0.8 mm
04:33 PM 86.4°F30.2°C 75.7°F24.3°C 70% 2.0 mph WSW3.2 kmh WSW 5.0 mph8.0 kmh 29.88 in1011.9 mb 0.00 in0.0 mm 0.00 in0.0 mm 0.03 in0.8 mm
04:38 PM 86.3°F30.2°C 75.6°F24.2°C 70% 1.2 mph WSW1.9 kmh WSW 6.0 mph9.7 kmh 29.88 in1011.9 mb 0.00 in0.0 mm 0.00 in0.0 mm 0.03 in0.8 mm
04:43 PM 87.0°F30.6°C 75.9°F24.4°C 69% 1.5 mph S2.4 kmh S 6.0 mph9.7 kmh 29.88 in1011.9 mb 0.00 in0.0 mm 0.00 in0.0 mm 0.03 in0.8 mm
04:48 PM 87.0°F30.6°C 75.4°F24.1°C 68% 1.7 mph SW2.7 kmh SW 6.0 mph9.7 kmh 29.88 in1011.9 mb 0.00 in0.0 mm 0.00 in0.0 mm 0.03 in0.8 mm
04:53 PM 86.8°F30.4°C 75.2°F24.0°C 68% 2.5 mph SW4.0 kmh SW 6.0 mph9.7 kmh 29.88 in1011.9 mb 0.00 in0.0 mm 0.00 in0.0 mm 0.03 in0.8 mm
04:58 PM 86.7°F30.4°C 75.3°F24.1°C 69% 1.6 mph SW2.6 kmh SW 6.0 mph9.7 kmh 29.88 in1011.9 mb 0.00 in0.0 mm 0.00 in0.0 mm 0.03 in0.8 mm
05:03 PM 86.4°F30.2°C 75.3°F24.1°C 69% 1.9 mph SW3.1 kmh SW 6.0 mph9.7 kmh 29.88 in1011.9 mb 0.00 in0.0 mm 0.00 in0.0 mm 0.03 in0.8 mm
05:08 PM 86.2°F30.1°C 75.1°F23.9°C 69% 2.2 mph SW3.5 kmh SW 6.0 mph9.7 kmh 29.88 in1011.9 mb 0.00 in0.0 mm 0.00 in0.0 mm 0.03 in0.8 mm
05:13 PM 86.6°F30.3°C 75.2°F24.0°C 69% 1.0 mph SSW1.6 kmh SSW 5.0 mph8.0 kmh 29.87 in1011.5 mb 0.00 in0.0 mm 0.00 in0.0 mm 0.03 in0.8 mm
05:18 PM 86.8°F30.4°C 75.0°F23.9°C 68% 1.8 mph S2.9 kmh S 5.0 mph8.0 kmh 29.87 in1011.5 mb 0.00 in0.0 mm 0.00 in0.0 mm 0.03 in0.8 mm
05:23 PM 86.9°F30.5°C 74.9°F23.8°C 67% 2.8 mph SW4.5 kmh SW 7.0 mph11.3 kmh 29.87 in1011.5 mb 0.00 in0.0 mm 0.00 in0.0 mm 0.03 in0.8 mm
05:28 PM 86.8°F30.4°C 75.2°F24.0°C 68% 1.0 mph SE1.6 kmh SE 7.0 mph11.3 kmh 29.87 in1011.5 mb 0.00 in0.0 mm 0.00 in0.0 mm 0.03 in0.8 mm
05:33 PM 86.6°F30.3°C 75.1°F23.9°C 68% 2.4 mph SW3.9 kmh SW 7.0 mph11.3 kmh 29.87 in1011.5 mb 0.00 in0.0 mm 0.00 in0.0 mm 0.03 in0.8 mm
05:38 PM 86.4°F30.2°C 75.3°F24.1°C 69% Calm Calm 7.0 mph11.3 kmh 29.88 in1011.9 mb 0.00 in0.0 mm 0.00 in0.0 mm 0.03 in0.8 mm
05:43 PM 86.0°F30.0°C 75.7°F24.3°C 71% Calm Calm 6.0 mph9.7 kmh 29.88 in1011.9 mb 0.00 in0.0 mm 0.00 in0.0 mm 0.03 in0.8 mm
05:48 PM 85.6°F29.8°C 75.4°F24.1°C 71% 1.0 mph SW1.6 kmh SW 6.0 mph9.7 kmh 29.88 in1011.9 mb 0.00 in0.0 mm 0.00 in0.0 mm 0.03 in0.8 mm
05:53 PM 85.3°F29.6°C 74.8°F23.8°C 71% 1.0 mph WSW1.6 kmh WSW 3.0 mph4.8 kmh 29.88 in1011.9 mb 0.00 in0.0 mm 0.00 in0.0 mm 0.03 in0.8 mm
05:58 PM 85.2°F29.6°C 74.3°F23.5°C 70% Calm Calm 3.0 mph4.8 kmh 29.88 in1011.9 mb 0.00 in0.0 mm 0.00 in0.0 mm 0.03 in0.8 mm
06:03 PM 84.9°F29.4°C 74.7°F23.7°C 71% 1.1 mph SE1.8 kmh SE 3.0 mph4.8 kmh 29.88 in1011.9 mb 0.00 in0.0 mm 0.00 in0.0 mm 0.03 in0.8 mm
06:08 PM 84.4°F29.1°C 74.8°F23.8°C 73% 1.0 mph ESE1.6 kmh ESE 3.0 mph4.8 kmh 29.88 in1011.9 mb 0.00 in0.0 mm 0.00 in0.0 mm 0.03 in0.8 mm
06:13 PM 84.0°F28.9°C 75.0°F23.9°C 74% 1.4 mph SW2.3 kmh SW 3.0 mph4.8 kmh 29.88 in1011.9 mb 0.00 in0.0 mm 0.00 in0.0 mm 0.03 in0.8 mm
06:18 PM 83.6°F28.7°C 75.0°F23.9°C 75% Calm Calm 3.0 mph4.8 kmh 29.88 in1011.9 mb 0.00 in0.0 mm 0.00 in0.0 mm 0.03 in0.8 mm
06:23 PM 83.2°F28.4°C 75.0°F23.9°C 76% 1.6 mph SSE2.6 kmh SSE 3.0 mph4.8 kmh 29.88 in1011.9 mb 0.00 in0.0 mm 0.00 in0.0 mm 0.03 in0.8 mm
06:28 PM 82.9°F28.3°C 75.1°F23.9°C 77% 1.4 mph SSE2.3 kmh SSE 3.0 mph4.8 kmh 29.88 in1011.9 mb 0.00 in0.0 mm 0.00 in0.0 mm 0.03 in0.8 mm
06:33 PM 82.5°F28.1°C 74.7°F23.7°C 77% 1.0 mph SE1.6 kmh SE 3.0 mph4.8 kmh 29.88 in1011.9 mb 0.00 in0.0 mm 0.00 in0.0 mm 0.03 in0.8 mm
06:38 PM 82.3°F27.9°C 75.3°F24.1°C 79% Calm Calm 3.0 mph4.8 kmh 29.88 in1011.9 mb 0.00 in0.0 mm 0.00 in0.0 mm 0.03 in0.8 mm
06:43 PM 82.0°F27.8°C 75.0°F23.9°C 79% 1.0 mph SW1.6 kmh SW 3.0 mph4.8 kmh 29.88 in1011.9 mb 0.00 in0.0 mm 0.00 in0.0 mm 0.03 in0.8 mm
06:48 PM 81.8°F27.7°C 75.0°F23.9°C 80% 1.3 mph SW2.1 kmh SW 2.0 mph3.2 kmh 29.89 in1012.2 mb 0.00 in0.0 mm 0.00 in0.0 mm 0.03 in0.8 mm
06:53 PM 80.9°F27.2°C 75.3°F24.1°C 83% 2.3 mph W3.7 kmh W 5.0 mph8.0 kmh 29.89 in1012.2 mb 0.00 in0.0 mm 0.00 in0.0 mm 0.03 in0.8 mm
06:58 PM 79.6°F26.4°C 75.1°F23.9°C 86% 1.4 mph W2.3 kmh W 5.0 mph8.0 kmh 29.89 in1012.2 mb 0.03 in0.8 mm 0.36 in9.1 mm 0.06 in1.5 mm
07:03 PM 78.8°F26.0°C 75.3°F24.1°C 89% Calm Calm 5.0 mph8.0 kmh 29.89 in1012.2 mb 0.06 in1.5 mm 0.03 in0.8 mm 0.09 in2.3 mm
07:08 PM 78.3°F25.7°C 75.1°F23.9°C 90% 1.2 mph WNW1.9 kmh WNW 5.0 mph8.0 kmh 29.89 in1012.2 mb 0.06 in1.5 mm 0.00 in0.0 mm 0.09 in2.3 mm
07:13 PM 78.1°F25.6°C 75.2°F24.0°C 91% Calm Calm 4.0 mph6.4 kmh 29.90 in1012.5 mb 0.07 in1.8 mm 0.12 in3.0 mm 0.10 in2.5 mm
07:18 PM 77.9°F25.5°C 75.4°F24.1°C 92% Calm Calm 2.0 mph3.2 kmh 29.90 in1012.5 mb 0.07 in1.8 mm 0.00 in0.0 mm 0.10 in2.5 mm
07:23 PM 77.7°F25.4°C 75.5°F24.2°C 93% Calm Calm 2.0 mph3.2 kmh 29.90 in1012.5 mb 0.07 in1.8 mm 0.00 in0.0 mm 0.10 in2.5 mm
07:28 PM 77.5°F25.3°C 75.3°F24.1°C 93% 1.0 mph N1.6 kmh N 1.0 mph1.6 kmh 29.91 in1012.9 mb 0.07 in1.8 mm 0.00 in0.0 mm 0.10 in2.5 mm
07:33 PM 77.1°F25.1°C 74.9°F23.8°C 93% 1.0 mph NE1.6 kmh NE 3.0 mph4.8 kmh 29.91 in1012.9 mb 0.07 in1.8 mm 0.00 in0.0 mm 0.10 in2.5 mm
07:37 PM 76.8°F24.9°C 74.9°F23.8°C 94% 1.0 mph W1.6 kmh W 3.0 mph4.8 kmh 29.91 in1012.9 mb 0.07 in1.8 mm 0.00 in0.0 mm 0.10 in2.5 mm
07:42 PM 76.7°F24.8°C 74.8°F23.8°C 94% 1.1 mph NW1.8 kmh NW 3.0 mph4.8 kmh 29.91 in1012.9 mb 0.08 in2.0 mm 0.12 in3.0 mm 0.11 in2.8 mm
07:47 PM 76.8°F24.9°C 74.9°F23.8°C 94% 1.0 mph NW1.6 kmh NW 3.0 mph4.8 kmh 29.91 in1012.9 mb 0.08 in2.0 mm 0.00 in0.0 mm 0.11 in2.8 mm
07:52 PM 76.8°F24.9°C 75.2°F24.0°C 95% 1.1 mph NW1.8 kmh NW 2.0 mph3.2 kmh 29.92 in1013.2 mb 0.08 in2.0 mm 0.00 in0.0 mm 0.11 in2.8 mm
07:57 PM 76.9°F24.9°C 75.3°F24.1°C 95% 1.5 mph NW2.4 kmh NW 3.0 mph4.8 kmh 29.92 in1013.2 mb 0.06 in1.5 mm 0.00 in0.0 mm 0.12 in3.0 mm
08:02 PM 76.9°F24.9°C 75.3°F24.1°C 95% 1.7 mph WNW2.7 kmh WNW 4.0 mph6.4 kmh 29.92 in1013.2 mb 0.04 in1.0 mm 0.00 in0.0 mm 0.12 in3.0 mm
08:07 PM 76.8°F24.9°C 75.2°F24.0°C 95% 1.9 mph NNW3.1 kmh NNW 6.0 mph9.7 kmh 29.92 in1013.2 mb 0.04 in1.0 mm 0.00 in0.0 mm 0.13 in3.3 mm
08:12 PM 76.4°F24.7°C 74.8°F23.8°C 95% 1.9 mph N3.1 kmh N 6.0 mph9.7 kmh 29.93 in1013.5 mb 0.04 in1.0 mm 0.00 in0.0 mm 0.13 in3.3 mm
08:17 PM 76.0°F24.4°C 74.4°F23.6°C 95% 1.9 mph NW3.1 kmh NW 6.0 mph9.7 kmh 29.93 in1013.5 mb 0.04 in1.0 mm 0.00 in0.0 mm 0.14 in3.6 mm
08:22 PM 75.7°F24.3°C 74.1°F23.4°C 95% 2.7 mph NW4.3 kmh NW 6.0 mph9.7 kmh 29.93 in1013.5 mb 0.08 in2.0 mm 0.48 in12.2 mm 0.18 in4.6 mm
08:27 PM 75.3°F24.1°C 73.8°F23.2°C 95% 2.6 mph NW4.2 kmh NW 6.0 mph9.7 kmh 29.93 in1013.5 mb 0.13 in3.3 mm 0.60 in15.2 mm 0.23 in5.8 mm
08:32 PM 75.0°F23.9°C 73.4°F23.0°C 95% 2.4 mph NW3.9 kmh NW 7.0 mph11.3 kmh 29.94 in1013.9 mb 0.19 in4.8 mm 0.72 in18.3 mm 0.29 in7.4 mm
08:37 PM 74.7°F23.7°C 73.1°F22.8°C 95% 2.7 mph NW4.3 kmh NW 7.0 mph11.3 kmh 29.94 in1013.9 mb 0.23 in5.8 mm 0.48 in12.2 mm 0.33 in8.4 mm
08:42 PM 74.5°F23.6°C 73.3°F22.9°C 96% 2.0 mph WNW3.2 kmh WNW 7.0 mph11.3 kmh 29.94 in1013.9 mb 0.23 in5.8 mm 0.00 in0.0 mm 0.34 in8.6 mm
08:47 PM 74.5°F23.6°C 73.3°F22.9°C 96% 1.0 mph NW1.6 kmh NW 7.0 mph11.3 kmh 29.95 in1014.2 mb 0.24 in6.1 mm 0.12 in3.0 mm 0.35 in8.9 mm
08:52 PM 74.5°F23.6°C 73.3°F22.9°C 96% 1.2 mph NNW1.9 kmh NNW 6.0 mph9.7 kmh 29.95 in1014.2 mb 0.24 in6.1 mm 0.00 in0.0 mm 0.35 in8.9 mm
08:57 PM 74.3°F23.5°C 73.1°F22.8°C 96% 1.1 mph NNW1.8 kmh NNW 6.0 mph9.7 kmh 29.95 in1014.2 mb 0.24 in6.1 mm 0.00 in0.0 mm 0.36 in9.1 mm
09:02 PM 74.2°F23.4°C 73.0°F22.8°C 96% Calm Calm 2.0 mph3.2 kmh 29.95 in1014.2 mb 0.26 in6.6 mm 0.02 in0.5 mm 0.38 in9.7 mm
09:07 PM 74.3°F23.5°C 73.1°F22.8°C 96% Calm Calm 2.0 mph3.2 kmh 29.95 in1014.2 mb 0.26 in6.6 mm 0.00 in0.0 mm 0.40 in10.2 mm
09:12 PM 74.3°F23.5°C 73.4°F23.0°C 97% Calm Calm 2.0 mph3.2 kmh 29.96 in1014.6 mb 0.28 in7.1 mm 0.24 in6.1 mm 0.41 in10.4 mm
09:17 PM 74.3°F23.5°C 73.4°F23.0°C 97% Calm Calm 1.0 mph1.6 kmh 29.96 in1014.6 mb 0.28 in7.1 mm 0.00 in0.0 mm 0.42 in10.7 mm
09:22 PM 74.2°F23.4°C 73.3°F22.9°C 97% 1.0 mph SE1.6 kmh SE 1.0 mph1.6 kmh 29.96 in1014.6 mb 0.24 in6.1 mm 0.00 in0.0 mm 0.42 in10.7 mm
09:27 PM 74.2°F23.4°C 73.3°F22.9°C 97% 1.0 mph SSE1.6 kmh SSE 1.0 mph1.6 kmh 29.97 in1014.9 mb 0.19 in4.8 mm 0.00 in0.0 mm 0.42 in10.7 mm
09:32 PM 74.2°F23.4°C 73.3°F22.9°C 97% 1.8 mph SE2.9 kmh SE 3.0 mph4.8 kmh 29.97 in1014.9 mb 0.13 in3.3 mm 0.00 in0.0 mm 0.42 in10.7 mm
09:37 PM 74.1°F23.4°C 73.2°F22.9°C 97% 1.2 mph SE1.9 kmh SE 3.0 mph4.8 kmh 29.97 in1014.9 mb 0.09 in2.3 mm 0.00 in0.0 mm 0.42 in10.7 mm
09:42 PM 74.0°F23.3°C 73.1°F22.8°C 97% 1.2 mph S1.9 kmh S 3.0 mph4.8 kmh 29.97 in1014.9 mb 0.08 in2.0 mm 0.00 in0.0 mm 0.42 in10.7 mm
09:47 PM 73.9°F23.3°C 73.0°F22.8°C 97% Calm Calm 3.0 mph4.8 kmh 29.96 in1014.6 mb 0.07 in1.8 mm 0.00 in0.0 mm 0.42 in10.7 mm
09:52 PM 73.9°F23.3°C 73.0°F22.8°C 97% Calm Calm 2.0 mph3.2 kmh 29.96 in1014.6 mb 0.07 in1.8 mm 0.00 in0.0 mm 0.42 in10.7 mm
09:57 PM 73.8°F23.2°C 72.9°F22.7°C 97% Calm Calm 2.0 mph3.2 kmh 29.96 in1014.6 mb 0.06 in1.5 mm 0.00 in0.0 mm 0.42 in10.7 mm
10:02 PM 73.8°F23.2°C 72.9°F22.7°C 97% Calm Calm 1.0 mph1.6 kmh 29.96 in1014.6 mb 0.04 in1.0 mm 0.00 in0.0 mm 0.42 in10.7 mm
10:07 PM 73.7°F23.2°C 72.8°F22.7°C 97% 1.0 mph SW1.6 kmh SW 1.0 mph1.6 kmh 29.96 in1014.6 mb 0.02 in0.5 mm 0.00 in0.0 mm 0.42 in10.7 mm
10:12 PM 73.8°F23.2°C 72.9°F22.7°C 97% Calm Calm 1.0 mph1.6 kmh 29.96 in1014.6 mb 0.01 in0.3 mm 0.00 in0.0 mm 0.42 in10.7 mm
10:17 PM 73.8°F23.2°C 72.9°F22.7°C 97% Calm Calm 1.0 mph1.6 kmh 29.97 in1014.9 mb 0.00 in0.0 mm 0.00 in0.0 mm 0.42 in10.7 mm
10:22 PM 73.8°F23.2°C 72.9°F22.7°C 97% Calm Calm 1.0 mph1.6 kmh 29.97 in1014.9 mb 0.00 in0.0 mm 0.00 in0.0 mm 0.42 in10.7 mm
10:27 PM 73.9°F23.3°C 73.0°F22.8°C 97% 1.0 mph SW1.6 kmh SW 1.0 mph1.6 kmh 29.96 in1014.6 mb 0.00 in0.0 mm 0.00 in0.0 mm 0.42 in10.7 mm
10:32 PM 73.9°F23.3°C 73.0°F22.8°C 97% Calm Calm 2.0 mph3.2 kmh 29.96 in1014.6 mb 0.00 in0.0 mm 0.00 in0.0 mm 0.42 in10.7 mm
10:37 PM 73.9°F23.3°C 73.0°F22.8°C 97% Calm Calm 2.0 mph3.2 kmh 29.96 in1014.6 mb 0.00 in0.0 mm 0.00 in0.0 mm 0.42 in10.7 mm
10:42 PM 73.8°F23.2°C 72.9°F22.7°C 97% Calm Calm 2.0 mph3.2 kmh 29.95 in1014.2 mb 0.00 in0.0 mm 0.00 in0.0 mm 0.42 in10.7 mm
10:47 PM 73.8°F23.2°C 72.9°F22.7°C 97% Calm Calm 1.0 mph1.6 kmh 29.95 in1014.2 mb 0.00 in0.0 mm 0.00 in0.0 mm 0.42 in10.7 mm
10:52 PM 73.9°F23.3°C 73.0°F22.8°C 97% Calm Calm 1.0 mph1.6 kmh 29.95 in1014.2 mb 0.00 in0.0 mm 0.00 in0.0 mm 0.42 in10.7 mm
10:57 PM 73.8°F23.2°C 72.9°F22.7°C 97% Calm Calm -- 29.95 in1014.2 mb 0.00 in0.0 mm 0.00 in0.0 mm 0.42 in10.7 mm
11:02 PM 73.8°F23.2°C 73.2°F22.9°C 98% Calm Calm -- 29.94 in1013.9 mb 0.00 in0.0 mm 0.00 in0.0 mm 0.42 in10.7 mm
11:07 PM 73.8°F23.2°C 73.2°F22.9°C 98% Calm Calm -- 29.94 in1013.9 mb 0.00 in0.0 mm 0.00 in0.0 mm 0.35 in8.9 mm
11:12 PM 73.8°F23.2°C 73.2°F22.9°C 98% Calm Calm 1.0 mph1.6 kmh 29.94 in1013.9 mb 0.00 in0.0 mm 0.00 in0.0 mm 0.35 in8.9 mm
11:17 PM 73.8°F23.2°C 73.2°F22.9°C 98% Calm Calm 1.0 mph1.6 kmh 29.93 in1013.5 mb 0.00 in0.0 mm 0.00 in0.0 mm 0.35 in8.9 mm
11:22 PM 73.8°F23.2°C 73.2°F22.9°C 98% Calm Calm 1.0 mph1.6 kmh 29.93 in1013.5 mb 0.00 in0.0 mm 0.00 in0.0 mm 0.35 in8.9 mm
11:27 PM 73.9°F23.3°C 73.3°F22.9°C 98% Calm Calm 1.0 mph1.6 kmh 29.93 in1013.5 mb 0.00 in0.0 mm 0.00 in0.0 mm 0.35 in8.9 mm
11:32 PM 73.9°F23.3°C 73.3°F22.9°C 98% Calm Calm 1.0 mph1.6 kmh 29.93 in1013.5 mb 0.00 in0.0 mm 0.00 in0.0 mm 0.35 in8.9 mm
11:37 PM 73.9°F23.3°C 73.3°F22.9°C 98% Calm Calm 1.0 mph1.6 kmh 29.92 in1013.2 mb 0.00 in0.0 mm 0.00 in0.0 mm 0.35 in8.9 mm
11:42 PM 73.9°F23.3°C 73.3°F22.9°C 98% 1.0 mph WSW1.6 kmh WSW 1.0 mph1.6 kmh 29.92 in1013.2 mb 0.00 in0.0 mm 0.00 in0.0 mm 0.35 in8.9 mm
11:47 PM 73.9°F23.3°C 73.3°F22.9°C 98% 1.0 mph W1.6 kmh W 1.0 mph1.6 kmh 29.92 in1013.2 mb 0.00 in0.0 mm 0.00 in0.0 mm 0.35 in8.9 mm
11:52 PM 73.9°F23.3°C 73.3°F22.9°C 98% 1.0 mph NNE1.6 kmh NNE 1.0 mph1.6 kmh 29.92 in1013.2 mb 0.00 in0.0 mm 0.00 in0.0 mm 0.35 in8.9 mm
11:57 PM 74.0°F23.3°C 73.4°F23.0°C 98% 1.0 mph NNE1.6 kmh NNE 1.0 mph1.6 kmh 29.92 in1013.2 mb 0.00 in0.0 mm 0.00 in0.0 mm 0.35 in8.9 mm